sensor_id;sensor_type;location;lat;lon;timestamp;P1;durP1;ratioP1;P2;durP2;ratioP2
55082;SDS011;40978;52.850;6.506;2024-01-30T00:01:15;3.78;;;2.78;;
55082;SDS011;40978;52.850;6.506;2024-01-30T00:03:41;4.40;;;2.22;;
55082;SDS011;40978;52.850;6.506;2024-01-30T00:06:07;5.10;;;3.35;;
55082;SDS011;40978;52.850;6.506;2024-01-30T00:08:33;6.50;;;3.25;;
55082;SDS011;40978;52.850;6.506;2024-01-30T00:10:59;7.15;;;4.25;;
55082;SDS011;40978;52.850;6.506;2024-01-30T00:13:26;7.60;;;3.47;;
55082;SDS011;40978;52.850;6.506;2024-01-30T00:15:52;2.72;;;2.33;;
55082;SDS011;40978;52.850;6.506;2024-01-30T00:18:17;7.78;;;3.55;;
55082;SDS011;40978;52.850;6.506;2024-01-30T00:20:44;5.68;;;3.38;;
55082;SDS011;40978;52.850;6.506;2024-01-30T00:23:09;4.90;;;3.30;;
55082;SDS011;40978;52.850;6.506;2024-01-30T00:25:35;8.95;;;2.83;;
55082;SDS011;40978;52.850;6.506;2024-01-30T00:28:01;4.78;;;2.58;;
55082;SDS011;40978;52.850;6.506;2024-01-30T00:30:27;6.55;;;3.88;;
55082;SDS011;40978;52.850;6.506;2024-01-30T00:32:53;4.60;;;3.15;;
55082;SDS011;40978;52.850;6.506;2024-01-30T00:35:19;5.55;;;3.10;;
55082;SDS011;40978;52.850;6.506;2024-01-30T00:37:47;5.90;;;3.22;;
55082;SDS011;40978;52.850;6.506;2024-01-30T00:40:13;5.13;;;2.90;;
55082;SDS011;40978;52.850;6.506;2024-01-30T00:42:43;3.38;;;2.55;;
55082;SDS011;40978;52.850;6.506;2024-01-30T00:45:15;2.80;;;2.35;;
55082;SDS011;40978;52.850;6.506;2024-01-30T00:47:42;4.40;;;3.35;;
55082;SDS011;40978;52.850;6.506;2024-01-30T00:50:08;3.40;;;1.77;;
55082;SDS011;40978;52.850;6.506;2024-01-30T00:52:34;4.95;;;2.92;;
55082;SDS011;40978;52.850;6.506;2024-01-30T00:55:00;4.05;;;2.83;;
55082;SDS011;40978;52.850;6.506;2024-01-30T00:57:26;3.35;;;2.63;;
55082;SDS011;40978;52.850;6.506;2024-01-30T00:59:52;4.90;;;2.80;;
55082;SDS011;40978;52.850;6.506;2024-01-30T01:02:17;5.07;;;2.47;;
55082;SDS011;40978;52.850;6.506;2024-01-30T01:04:44;3.83;;;2.33;;
55082;SDS011;40978;52.850;6.506;2024-01-30T01:07:10;4.22;;;3.22;;
55082;SDS011;40978;52.850;6.506;2024-01-30T01:09:36;4.63;;;3.55;;
55082;SDS011;40978;52.850;6.506;2024-01-30T01:12:02;2.55;;;2.05;;
55082;SDS011;40978;52.850;6.506;2024-01-30T01:14:29;4.35;;;2.92;;
55082;SDS011;40978;52.850;6.506;2024-01-30T01:16:54;5.18;;;2.92;;
55082;SDS011;40978;52.850;6.506;2024-01-30T01:19:20;4.03;;;2.55;;
55082;SDS011;40978;52.850;6.506;2024-01-30T01:21:46;3.42;;;2.05;;
55082;SDS011;40978;52.850;6.506;2024-01-30T01:24:12;3.78;;;2.80;;
55082;SDS011;40978;52.850;6.506;2024-01-30T01:26:37;3.85;;;2.03;;
55082;SDS011;40978;52.850;6.506;2024-01-30T01:29:03;4.55;;;2.67;;
55082;SDS011;40978;52.850;6.506;2024-01-30T01:31:35;4.95;;;3.28;;
55082;SDS011;40978;52.850;6.506;2024-01-30T01:34:05;3.85;;;2.83;;
55082;SDS011;40978;52.850;6.506;2024-01-30T01:36:31;4.30;;;2.70;;
55082;SDS011;40978;52.850;6.506;2024-01-30T01:38:57;5.68;;;3.00;;
55082;SDS011;40978;52.850;6.506;2024-01-30T01:41:22;3.97;;;2.80;;
55082;SDS011;40978;52.850;6.506;2024-01-30T01:43:48;3.40;;;2.58;;
55082;SDS011;40978;52.850;6.506;2024-01-30T01:46:14;4.03;;;2.25;;
55082;SDS011;40978;52.850;6.506;2024-01-30T01:48:40;6.10;;;2.40;;
55082;SDS011;40978;52.850;6.506;2024-01-30T01:51:07;5.75;;;2.80;;
55082;SDS011;40978;52.850;6.506;2024-01-30T01:53:34;4.88;;;2.95;;
55082;SDS011;40978;52.850;6.506;2024-01-30T01:56:00;6.57;;;2.95;;
55082;SDS011;40978;52.850;6.506;2024-01-30T01:58:26;9.13;;;3.53;;
55082;SDS011;40978;52.850;6.506;2024-01-30T02:00:54;4.63;;;3.33;;
55082;SDS011;40978;52.850;6.506;2024-01-30T02:03:21;3.80;;;2.33;;
55082;SDS011;40978;52.850;6.506;2024-01-30T02:05:47;2.75;;;2.15;;
55082;SDS011;40978;52.850;6.506;2024-01-30T02:08:14;4.22;;;2.90;;
55082;SDS011;40978;52.850;6.506;2024-01-30T02:10:40;6.18;;;3.25;;
55082;SDS011;40978;52.850;6.506;2024-01-30T02:13:06;4.13;;;3.50;;
55082;SDS011;40978;52.850;6.506;2024-01-30T02:15:31;2.92;;;2.20;;
55082;SDS011;40978;52.850;6.506;2024-01-30T02:17:57;3.53;;;2.50;;
55082;SDS011;40978;52.850;6.506;2024-01-30T02:20:23;4.35;;;2.45;;
55082;SDS011;40978;52.850;6.506;2024-01-30T02:22:51;2.08;;;1.65;;
55082;SDS011;40978;52.850;6.506;2024-01-30T02:25:19;4.45;;;2.65;;
55082;SDS011;40978;52.850;6.506;2024-01-30T02:27:45;2.55;;;2.03;;
55082;SDS011;40978;52.850;6.506;2024-01-30T02:30:10;3.00;;;2.05;;
55082;SDS011;40978;52.850;6.506;2024-01-30T02:32:36;5.18;;;2.53;;
55082;SDS011;40978;52.850;6.506;2024-01-30T02:35:02;6.00;;;2.97;;
55082;SDS011;40978;52.850;6.506;2024-01-30T02:37:28;4.15;;;2.35;;
55082;SDS011;40978;52.850;6.506;2024-01-30T02:39:54;3.92;;;2.58;;
55082;SDS011;40978;52.850;6.506;2024-01-30T02:42:20;3.50;;;3.03;;
55082;SDS011;40978;52.850;6.506;2024-01-30T02:44:45;7.28;;;3.05;;
55082;SDS011;40978;52.850;6.506;2024-01-30T02:47:11;3.17;;;2.42;;
55082;SDS011;40978;52.850;6.506;2024-01-30T02:49:37;4.57;;;2.85;;
55082;SDS011;40978;52.850;6.506;2024-01-30T02:52:02;3.42;;;2.38;;
55082;SDS011;40978;52.850;6.506;2024-01-30T02:54:29;2.75;;;2.15;;
55082;SDS011;40978;52.850;6.506;2024-01-30T02:56:55;3.47;;;2.20;;
55082;SDS011;40978;52.850;6.506;2024-01-30T02:59:21;3.67;;;2.13;;
55082;SDS011;40978;52.850;6.506;2024-01-30T03:01:47;4.70;;;2.80;;
55082;SDS011;40978;52.850;6.506;2024-01-30T03:04:13;2.30;;;1.73;;
55082;SDS011;40978;52.850;6.506;2024-01-30T03:06:38;4.88;;;2.47;;
55082;SDS011;40978;52.850;6.506;2024-01-30T03:09:09;4.43;;;3.05;;
55082;SDS011;40978;52.850;6.506;2024-01-30T03:11:35;2.65;;;1.60;;
55082;SDS011;40978;52.850;6.506;2024-01-30T03:14:01;3.80;;;2.72;;
55082;SDS011;40978;52.850;6.506;2024-01-30T03:16:27;4.35;;;1.85;;
55082;SDS011;40978;52.850;6.506;2024-01-30T03:18:52;3.58;;;2.28;;
55082;SDS011;40978;52.850;6.506;2024-01-30T03:21:18;4.82;;;2.45;;
55082;SDS011;40978;52.850;6.506;2024-01-30T03:23:44;3.28;;;2.67;;
55082;SDS011;40978;52.850;6.506;2024-01-30T03:26:09;5.85;;;3.17;;
55082;SDS011;40978;52.850;6.506;2024-01-30T03:28:36;4.05;;;2.25;;
55082;SDS011;40978;52.850;6.506;2024-01-30T03:31:01;2.90;;;2.20;;
55082;SDS011;40978;52.850;6.506;2024-01-30T03:33:27;3.03;;;1.98;;
55082;SDS011;40978;52.850;6.506;2024-01-30T03:35:53;5.30;;;3.00;;
55082;SDS011;40978;52.850;6.506;2024-01-30T03:38:19;4.72;;;2.50;;
55082;SDS011;40978;52.850;6.506;2024-01-30T03:40:44;3.55;;;3.20;;
55082;SDS011;40978;52.850;6.506;2024-01-30T03:43:10;3.83;;;2.22;;
55082;SDS011;40978;52.850;6.506;2024-01-30T03:45:36;7.13;;;2.75;;
55082;SDS011;40978;52.850;6.506;2024-01-30T03:48:02;4.85;;;2.97;;
55082;SDS011;40978;52.850;6.506;2024-01-30T03:50:28;3.40;;;2.10;;
55082;SDS011;40978;52.850;6.506;2024-01-30T03:52:53;3.13;;;2.33;;
55082;SDS011;40978;52.850;6.506;2024-01-30T03:55:19;3.70;;;2.08;;
55082;SDS011;40978;52.850;6.506;2024-01-30T03:57:45;2.92;;;2.63;;
55082;SDS011;40978;52.850;6.506;2024-01-30T04:00:10;3.55;;;2.38;;
55082;SDS011;40978;52.850;6.506;2024-01-30T04:02:37;4.07;;;2.72;;
55082;SDS011;40978;52.850;6.506;2024-01-30T04:05:02;5.35;;;3.10;;
55082;SDS011;40978;52.850;6.506;2024-01-30T04:07:28;2.90;;;2.08;;
55082;SDS011;40978;52.850;6.506;2024-01-30T04:09:54;3.80;;;2.05;;
55082;SDS011;40978;52.850;6.506;2024-01-30T04:12:19;4.10;;;2.35;;
55082;SDS011;40978;52.850;6.506;2024-01-30T04:14:45;4.45;;;2.20;;
55082;SDS011;40978;52.850;6.506;2024-01-30T04:17:11;3.85;;;2.88;;
55082;SDS011;40978;52.850;6.506;2024-01-30T04:19:37;2.45;;;1.90;;
55082;SDS011;40978;52.850;6.506;2024-01-30T04:22:03;3.58;;;2.78;;
55082;SDS011;40978;52.850;6.506;2024-01-30T04:24:29;6.18;;;2.75;;
55082;SDS011;40978;52.850;6.506;2024-01-30T04:26:55;2.50;;;2.10;;
55082;SDS011;40978;52.850;6.506;2024-01-30T04:29:20;3.92;;;2.60;;
55082;SDS011;40978;52.850;6.506;2024-01-30T04:31:47;2.58;;;2.05;;
55082;SDS011;40978;52.850;6.506;2024-01-30T04:34:13;4.80;;;2.80;;
55082;SDS011;40978;52.850;6.506;2024-01-30T04:36:38;7.22;;;2.92;;
55082;SDS011;40978;52.850;6.506;2024-01-30T04:39:04;3.40;;;2.80;;
55082;SDS011;40978;52.850;6.506;2024-01-30T04:41:30;2.92;;;2.15;;
55082;SDS011;40978;52.850;6.506;2024-01-30T04:43:57;3.70;;;2.05;;
55082;SDS011;40978;52.850;6.506;2024-01-30T04:46:23;4.93;;;2.80;;
55082;SDS011;40978;52.850;6.506;2024-01-30T04:48:49;10.18;;;2.38;;
55082;SDS011;40978;52.850;6.506;2024-01-30T04:51:14;4.97;;;3.08;;
55082;SDS011;40978;52.850;6.506;2024-01-30T04:53:40;2.53;;;2.13;;
55082;SDS011;40978;52.850;6.506;2024-01-30T04:56:06;3.72;;;2.10;;
55082;SDS011;40978;52.850;6.506;2024-01-30T04:58:31;4.63;;;2.60;;
55082;SDS011;40978;52.850;6.506;2024-01-30T05:00:57;3.88;;;1.85;;
55082;SDS011;40978;52.850;6.506;2024-01-30T05:03:23;7.25;;;2.85;;
55082;SDS011;40978;52.850;6.506;2024-01-30T05:05:49;4.22;;;2.40;;
55082;SDS011;40978;52.850;6.506;2024-01-30T05:08:15;3.30;;;1.88;;
55082;SDS011;40978;52.850;6.506;2024-01-30T05:10:40;4.10;;;1.90;;
55082;SDS011;40978;52.850;6.506;2024-01-30T05:13:06;5.07;;;2.80;;
55082;SDS011;40978;52.850;6.506;2024-01-30T05:15:32;3.88;;;2.33;;
55082;SDS011;40978;52.850;6.506;2024-01-30T05:17:57;5.95;;;2.85;;
55082;SDS011;40978;52.850;6.506;2024-01-30T05:20:23;2.92;;;2.03;;
55082;SDS011;40978;52.850;6.506;2024-01-30T05:22:49;4.13;;;2.22;;
55082;SDS011;40978;52.850;6.506;2024-01-30T05:25:15;4.63;;;2.72;;
55082;SDS011;40978;52.850;6.506;2024-01-30T05:27:40;4.13;;;1.98;;
55082;SDS011;40978;52.850;6.506;2024-01-30T05:30:06;4.88;;;2.08;;
55082;SDS011;40978;52.850;6.506;2024-01-30T05:32:32;4.70;;;2.38;;
55082;SDS011;40978;52.850;6.506;2024-01-30T05:34:58;2.60;;;2.17;;
55082;SDS011;40978;52.850;6.506;2024-01-30T05:37:24;4.10;;;2.20;;
55082;SDS011;40978;52.850;6.506;2024-01-30T05:39:49;3.90;;;3.33;;
55082;SDS011;40978;52.850;6.506;2024-01-30T05:42:15;6.78;;;2.30;;
55082;SDS011;40978;52.850;6.506;2024-01-30T05:44:42;4.63;;;2.03;;
55082;SDS011;40978;52.850;6.506;2024-01-30T05:47:07;3.83;;;1.83;;
55082;SDS011;40978;52.850;6.506;2024-01-30T05:49:33;3.05;;;2.00;;
55082;SDS011;40978;52.850;6.506;2024-01-30T05:52:00;3.78;;;2.35;;
55082;SDS011;40978;52.850;6.506;2024-01-30T05:54:28;4.22;;;2.55;;
55082;SDS011;40978;52.850;6.506;2024-01-30T05:56:53;3.72;;;2.30;;
55082;SDS011;40978;52.850;6.506;2024-01-30T05:59:19;4.47;;;2.03;;
55082;SDS011;40978;52.850;6.506;2024-01-30T06:01:45;9.30;;;3.05;;
55082;SDS011;40978;52.850;6.506;2024-01-30T06:04:12;2.92;;;1.80;;
55082;SDS011;40978;52.850;6.506;2024-01-30T06:06:38;5.13;;;2.78;;
55082;SDS011;40978;52.850;6.506;2024-01-30T06:09:03;4.82;;;2.25;;
55082;SDS011;40978;52.850;6.506;2024-01-30T06:11:29;3.70;;;2.28;;
55082;SDS011;40978;52.850;6.506;2024-01-30T06:13:55;8.48;;;2.92;;
55082;SDS011;40978;52.850;6.506;2024-01-30T06:16:20;6.60;;;3.30;;
55082;SDS011;40978;52.850;6.506;2024-01-30T06:18:47;2.92;;;1.60;;
55082;SDS011;40978;52.850;6.506;2024-01-30T06:21:13;5.85;;;2.63;;
55082;SDS011;40978;52.850;6.506;2024-01-30T06:23:39;3.03;;;1.98;;
55082;SDS011;40978;52.850;6.506;2024-01-30T06:26:06;3.42;;;2.40;;
55082;SDS011;40978;52.850;6.506;2024-01-30T06:28:32;5.40;;;1.73;;
55082;SDS011;40978;52.850;6.506;2024-01-30T06:30:58;2.20;;;1.63;;
55082;SDS011;40978;52.850;6.506;2024-01-30T06:33:25;8.80;;;2.33;;
55082;SDS011;40978;52.850;6.506;2024-01-30T06:35:51;3.55;;;2.05;;
55082;SDS011;40978;52.850;6.506;2024-01-30T06:38:17;3.03;;;1.85;;
55082;SDS011;40978;52.850;6.506;2024-01-30T06:40:42;3.17;;;2.17;;
55082;SDS011;40978;52.850;6.506;2024-01-30T06:43:08;3.50;;;2.30;;
55082;SDS011;40978;52.850;6.506;2024-01-30T06:45:34;3.15;;;2.15;;
55082;SDS011;40978;52.850;6.506;2024-01-30T06:48:00;3.72;;;2.17;;
55082;SDS011;40978;52.850;6.506;2024-01-30T06:50:26;6.70;;;3.20;;
55082;SDS011;40978;52.850;6.506;2024-01-30T06:52:52;2.85;;;2.20;;
55082;SDS011;40978;52.850;6.506;2024-01-30T06:55:18;3.42;;;2.00;;
55082;SDS011;40978;52.850;6.506;2024-01-30T06:57:43;9.57;;;2.60;;
55082;SDS011;40978;52.850;6.506;2024-01-30T07:00:09;2.55;;;1.98;;
55082;SDS011;40978;52.850;6.506;2024-01-30T07:02:36;3.22;;;1.85;;
55082;SDS011;40978;52.850;6.506;2024-01-30T07:05:01;4.97;;;2.45;;
55082;SDS011;40978;52.850;6.506;2024-01-30T07:07:28;5.68;;;2.58;;
55082;SDS011;40978;52.850;6.506;2024-01-30T07:09:54;4.75;;;1.95;;
55082;SDS011;40978;52.850;6.506;2024-01-30T07:12:24;3.63;;;1.83;;
55082;SDS011;40978;52.850;6.506;2024-01-30T07:14:51;4.53;;;2.05;;
55082;SDS011;40978;52.850;6.506;2024-01-30T07:17:17;2.70;;;2.13;;
55082;SDS011;40978;52.850;6.506;2024-01-30T07:19:43;7.57;;;3.25;;
55082;SDS011;40978;52.850;6.506;2024-01-30T07:22:08;4.07;;;1.85;;
55082;SDS011;40978;52.850;6.506;2024-01-30T07:24:34;3.80;;;2.22;;
55082;SDS011;40978;52.850;6.506;2024-01-30T07:27:00;2.95;;;2.47;;
55082;SDS011;40978;52.850;6.506;2024-01-30T07:29:26;6.05;;;1.50;;
55082;SDS011;40978;52.850;6.506;2024-01-30T07:31:52;3.78;;;2.10;;
55082;SDS011;40978;52.850;6.506;2024-01-30T07:34:18;3.58;;;2.15;;
55082;SDS011;40978;52.850;6.506;2024-01-30T07:36:44;3.60;;;2.05;;
55082;SDS011;40978;52.850;6.506;2024-01-30T07:39:10;3.40;;;2.33;;
55082;SDS011;40978;52.850;6.506;2024-01-30T07:41:35;6.53;;;2.63;;
55082;SDS011;40978;52.850;6.506;2024-01-30T07:44:02;4.13;;;1.98;;
55082;SDS011;40978;52.850;6.506;2024-01-30T07:46:28;3.45;;;2.33;;
55082;SDS011;40978;52.850;6.506;2024-01-30T07:48:53;2.90;;;2.53;;
55082;SDS011;40978;52.850;6.506;2024-01-30T07:51:20;3.03;;;2.40;;
55082;SDS011;40978;52.850;6.506;2024-01-30T07:53:52;3.63;;;2.00;;
55082;SDS011;40978;52.850;6.506;2024-01-30T07:56:18;3.75;;;2.15;;
55082;SDS011;40978;52.850;6.506;2024-01-30T07:58:44;3.60;;;1.85;;
55082;SDS011;40978;52.850;6.506;2024-01-30T08:01:10;2.55;;;1.90;;
55082;SDS011;40978;52.850;6.506;2024-01-30T08:03:35;1.35;;;1.02;;
55082;SDS011;40978;52.850;6.506;2024-01-30T08:06:02;2.92;;;2.17;;
55082;SDS011;40978;52.850;6.506;2024-01-30T08:08:28;4.97;;;2.35;;
55082;SDS011;40978;52.850;6.506;2024-01-30T08:10:54;4.13;;;2.45;;
55082;SDS011;40978;52.850;6.506;2024-01-30T08:13:19;4.25;;;2.55;;
55082;SDS011;40978;52.850;6.506;2024-01-30T08:15:45;3.38;;;1.70;;
55082;SDS011;40978;52.850;6.506;2024-01-30T08:18:10;5.57;;;2.38;;
55082;SDS011;40978;52.850;6.506;2024-01-30T08:20:36;3.45;;;2.28;;
55082;SDS011;40978;52.850;6.506;2024-01-30T08:23:02;3.95;;;2.38;;
55082;SDS011;40978;52.850;6.506;2024-01-30T08:25:28;2.88;;;1.90;;
55082;SDS011;40978;52.850;6.506;2024-01-30T08:27:53;3.50;;;2.35;;
55082;SDS011;40978;52.850;6.506;2024-01-30T08:30:19;2.60;;;2.08;;
55082;SDS011;40978;52.850;6.506;2024-01-30T08:32:45;6.80;;;2.05;;
55082;SDS011;40978;52.850;6.506;2024-01-30T08:35:10;2.90;;;1.67;;
55082;SDS011;40978;52.850;6.506;2024-01-30T08:37:38;5.20;;;2.58;;
55082;SDS011;40978;52.850;6.506;2024-01-30T08:40:04;2.47;;;1.58;;
55082;SDS011;40978;52.850;6.506;2024-01-30T08:42:31;3.42;;;1.67;;
55082;SDS011;40978;52.850;6.506;2024-01-30T08:44:56;3.10;;;1.83;;
55082;SDS011;40978;52.850;6.506;2024-01-30T08:47:22;2.33;;;1.67;;
55082;SDS011;40978;52.850;6.506;2024-01-30T08:49:48;5.05;;;1.67;;
55082;SDS011;40978;52.850;6.506;2024-01-30T08:52:13;2.50;;;1.63;;
55082;SDS011;40978;52.850;6.506;2024-01-30T08:54:39;5.65;;;1.80;;
55082;SDS011;40978;52.850;6.506;2024-01-30T08:57:05;3.60;;;2.03;;
55082;SDS011;40978;52.850;6.506;2024-01-30T08:59:30;4.95;;;1.65;;
55082;SDS011;40978;52.850;6.506;2024-01-30T09:01:56;5.28;;;2.03;;
55082;SDS011;40978;52.850;6.506;2024-01-30T09:04:23;2.45;;;1.40;;
55082;SDS011;40978;52.850;6.506;2024-01-30T09:06:49;3.90;;;2.13;;
55082;SDS011;40978;52.850;6.506;2024-01-30T09:09:15;5.10;;;1.75;;
55082;SDS011;40978;52.850;6.506;2024-01-30T09:11:41;3.13;;;2.20;;
55082;SDS011;40978;52.850;6.506;2024-01-30T09:14:07;10.05;;;2.50;;
55082;SDS011;40978;52.850;6.506;2024-01-30T09:16:32;2.63;;;1.67;;
55082;SDS011;40978;52.850;6.506;2024-01-30T09:18:59;3.03;;;1.95;;
55082;SDS011;40978;52.850;6.506;2024-01-30T09:21:24;2.88;;;1.40;;
55082;SDS011;40978;52.850;6.506;2024-01-30T09:23:51;2.28;;;1.70;;
55082;SDS011;40978;52.850;6.506;2024-01-30T09:26:19;3.55;;;2.22;;
55082;SDS011;40978;52.850;6.506;2024-01-30T09:28:45;3.28;;;1.70;;
55082;SDS011;40978;52.850;6.506;2024-01-30T09:31:11;4.13;;;2.60;;
55082;SDS011;40978;52.850;6.506;2024-01-30T09:33:37;3.25;;;1.85;;
55082;SDS011;40978;52.850;6.506;2024-01-30T09:36:05;2.67;;;1.75;;
55082;SDS011;40978;52.850;6.506;2024-01-30T09:38:31;3.78;;;2.03;;
55082;SDS011;40978;52.850;6.506;2024-01-30T09:40:57;3.25;;;1.60;;
55082;SDS011;40978;52.850;6.506;2024-01-30T09:43:33;3.05;;;2.05;;
55082;SDS011;40978;52.850;6.506;2024-01-30T09:46:00;2.38;;;1.70;;
55082;SDS011;40978;52.850;6.506;2024-01-30T09:48:29;6.32;;;2.45;;
55082;SDS011;40978;52.850;6.506;2024-01-30T09:50:56;3.25;;;2.20;;
55082;SDS011;40978;52.850;6.506;2024-01-30T09:53:22;6.43;;;2.40;;
55082;SDS011;40978;52.850;6.506;2024-01-30T09:55:49;7.80;;;2.88;;
55082;SDS011;40978;52.850;6.506;2024-01-30T09:58:16;2.05;;;1.20;;
55082;SDS011;40978;52.850;6.506;2024-01-30T10:00:41;3.08;;;1.65;;
55082;SDS011;40978;52.850;6.506;2024-01-30T10:03:08;3.13;;;1.77;;
55082;SDS011;40978;52.850;6.506;2024-01-30T10:05:35;1.88;;;1.42;;
55082;SDS011;40978;52.850;6.506;2024-01-30T10:08:05;5.55;;;1.92;;
55082;SDS011;40978;52.850;6.506;2024-01-30T10:10:33;5.60;;;1.75;;
55082;SDS011;40978;52.850;6.506;2024-01-30T10:13:00;1.98;;;1.42;;
55082;SDS011;40978;52.850;6.506;2024-01-30T10:15:25;5.32;;;1.92;;
55082;SDS011;40978;52.850;6.506;2024-01-30T10:17:53;3.72;;;1.83;;
55082;SDS011;40978;52.850;6.506;2024-01-30T10:20:19;3.42;;;1.67;;
55082;SDS011;40978;52.850;6.506;2024-01-30T10:22:47;2.30;;;1.63;;
55082;SDS011;40978;52.850;6.506;2024-01-30T10:25:14;3.45;;;1.60;;
55082;SDS011;40978;52.850;6.506;2024-01-30T10:27:40;2.60;;;1.80;;
55082;SDS011;40978;52.850;6.506;2024-01-30T10:30:07;2.70;;;1.67;;
55082;SDS011;40978;52.850;6.506;2024-01-30T10:32:33;3.65;;;1.77;;
55082;SDS011;40978;52.850;6.506;2024-01-30T10:34:59;1.98;;;1.70;;
55082;SDS011;40978;52.850;6.506;2024-01-30T10:37:25;3.83;;;2.13;;
55082;SDS011;40978;52.850;6.506;2024-01-30T10:39:52;3.75;;;2.15;;
55082;SDS011;40978;52.850;6.506;2024-01-30T10:42:22;4.07;;;2.33;;
55082;SDS011;40978;52.850;6.506;2024-01-30T10:47:27;6.50;;;2.30;;
55082;SDS011;40978;52.850;6.506;2024-01-30T10:49:54;5.80;;;1.90;;
55082;SDS011;40978;52.850;6.506;2024-01-30T10:52:21;3.15;;;2.15;;
55082;SDS011;40978;52.850;6.506;2024-01-30T10:54:49;4.80;;;2.45;;
55082;SDS011;40978;52.850;6.506;2024-01-30T10:57:16;4.35;;;1.77;;
55082;SDS011;40978;52.850;6.506;2024-01-30T10:59:42;7.30;;;1.77;;
55082;SDS011;40978;52.850;6.506;2024-01-30T11:02:10;2.90;;;1.55;;
55082;SDS011;40978;52.850;6.506;2024-01-30T11:04:42;4.15;;;1.85;;
55082;SDS011;40978;52.850;6.506;2024-01-30T11:07:15;3.50;;;1.85;;
55082;SDS011;40978;52.850;6.506;2024-01-30T11:09:48;3.67;;;2.45;;
55082;SDS011;40978;52.850;6.506;2024-01-30T11:12:15;3.30;;;1.90;;
55082;SDS011;40978;52.850;6.506;2024-01-30T11:14:40;5.90;;;2.13;;
55082;SDS011;40978;52.850;6.506;2024-01-30T11:17:06;3.50;;;2.03;;
55082;SDS011;40978;52.850;6.506;2024-01-30T11:19:34;5.95;;;2.60;;
55082;SDS011;40978;52.850;6.506;2024-01-30T11:22:00;5.10;;;2.40;;
55082;SDS011;40978;52.850;6.506;2024-01-30T11:24:27;2.35;;;1.60;;
55082;SDS011;40978;52.850;6.506;2024-01-30T11:26:56;2.97;;;1.83;;
55082;SDS011;40978;52.850;6.506;2024-01-30T11:29:27;4.85;;;2.55;;
55082;SDS011;40978;52.850;6.506;2024-01-30T11:31:53;4.65;;;2.85;;
55082;SDS011;40978;52.850;6.506;2024-01-30T11:34:20;4.28;;;2.40;;
55082;SDS011;40978;52.850;6.506;2024-01-30T11:36:53;2.92;;;1.98;;
55082;SDS011;40978;52.850;6.506;2024-01-30T11:39:24;7.93;;;2.70;;
55082;SDS011;40978;52.850;6.506;2024-01-30T11:42:01;2.80;;;1.98;;
55082;SDS011;40978;52.850;6.506;2024-01-30T11:44:29;6.57;;;2.60;;
55082;SDS011;40978;52.850;6.506;2024-01-30T11:46:55;6.82;;;2.42;;
55082;SDS011;40978;52.850;6.506;2024-01-30T11:49:21;5.57;;;2.20;;
55082;SDS011;40978;52.850;6.506;2024-01-30T11:51:48;5.60;;;2.33;;
55082;SDS011;40978;52.850;6.506;2024-01-30T11:54:15;7.00;;;2.45;;
55082;SDS011;40978;52.850;6.506;2024-01-30T11:56:41;3.50;;;2.03;;
55082;SDS011;40978;52.850;6.506;2024-01-30T11:59:08;2.88;;;2.10;;
55082;SDS011;40978;52.850;6.506;2024-01-30T12:01:34;2.47;;;1.92;;
55082;SDS011;40978;52.850;6.506;2024-01-30T12:04:00;3.13;;;2.53;;
55082;SDS011;40978;52.850;6.506;2024-01-30T12:06:25;3.22;;;2.00;;
55082;SDS011;40978;52.850;6.506;2024-01-30T12:08:58;2.60;;;2.08;;
55082;SDS011;40978;52.850;6.506;2024-01-30T12:11:25;2.70;;;1.92;;
55082;SDS011;40978;52.850;6.506;2024-01-30T12:13:51;3.58;;;1.98;;
55082;SDS011;40978;52.850;6.506;2024-01-30T12:16:18;3.30;;;1.90;;
55082;SDS011;40978;52.850;6.506;2024-01-30T12:18:44;3.00;;;1.48;;
55082;SDS011;40978;52.850;6.506;2024-01-30T12:21:10;3.38;;;1.67;;
55082;SDS011;40978;52.850;6.506;2024-01-30T12:23:36;3.25;;;1.42;;
55082;SDS011;40978;52.850;6.506;2024-01-30T12:26:02;2.10;;;0.85;;
55082;SDS011;40978;52.850;6.506;2024-01-30T12:28:32;5.43;;;1.35;;
55082;SDS011;40978;52.850;6.506;2024-01-30T12:31:02;5.38;;;1.33;;
55082;SDS011;40978;52.850;6.506;2024-01-30T12:33:29;4.45;;;1.00;;
55082;SDS011;40978;52.850;6.506;2024-01-30T12:35:55;0.90;;;0.65;;
55082;SDS011;40978;52.850;6.506;2024-01-30T12:38:24;0.60;;;0.52;;
55082;SDS011;40978;52.850;6.506;2024-01-30T12:40:59;2.13;;;0.85;;
55082;SDS011;40978;52.850;6.506;2024-01-30T12:43:25;0.80;;;0.60;;
55082;SDS011;40978;52.850;6.506;2024-01-30T12:45:52;1.23;;;0.43;;
55082;SDS011;40978;52.850;6.506;2024-01-30T12:48:18;0.85;;;0.50;;
55082;SDS011;40978;52.850;6.506;2024-01-30T12:50:43;0.20;;;0.20;;
55082;SDS011;40978;52.850;6.506;2024-01-30T12:53:09;0.75;;;0.52;;
55082;SDS011;40978;52.850;6.506;2024-01-30T12:55:35;0.65;;;0.40;;
55082;SDS011;40978;52.850;6.506;2024-01-30T12:58:01;1.23;;;0.50;;
55082;SDS011;40978;52.850;6.506;2024-01-30T13:00:27;1.02;;;0.57;;
55082;SDS011;40978;52.850;6.506;2024-01-30T13:02:52;0.17;;;0.17;;
55082;SDS011;40978;52.850;6.506;2024-01-30T13:05:18;1.27;;;0.38;;
55082;SDS011;40978;52.850;6.506;2024-01-30T13:07:44;0.80;;;0.52;;
55082;SDS011;40978;52.850;6.506;2024-01-30T13:10:10;1.95;;;0.60;;
55082;SDS011;40978;52.850;6.506;2024-01-30T13:12:36;0.57;;;0.20;;
55082;SDS011;40978;52.850;6.506;2024-01-30T13:15:03;0.68;;;0.35;;
55082;SDS011;40978;52.850;6.506;2024-01-30T13:17:30;0.28;;;0.28;;
55082;SDS011;40978;52.850;6.506;2024-01-30T13:19:57;1.00;;;0.25;;
55082;SDS011;40978;52.850;6.506;2024-01-30T13:22:23;0.15;;;0.13;;
55082;SDS011;40978;52.850;6.506;2024-01-30T13:24:49;1.38;;;0.43;;
55082;SDS011;40978;52.850;6.506;2024-01-30T13:27:15;3.10;;;0.43;;
55082;SDS011;40978;52.850;6.506;2024-01-30T13:29:41;0.22;;;0.20;;
55082;SDS011;40978;52.850;6.506;2024-01-30T13:32:07;0.20;;;0.10;;
55082;SDS011;40978;52.850;6.506;2024-01-30T13:34:33;1.38;;;0.68;;
55082;SDS011;40978;52.850;6.506;2024-01-30T13:36:59;0.57;;;0.30;;
55082;SDS011;40978;52.850;6.506;2024-01-30T13:39:24;1.20;;;0.57;;
55082;SDS011;40978;52.850;6.506;2024-01-30T13:41:50;0.57;;;0.40;;
55082;SDS011;40978;52.850;6.506;2024-01-30T13:44:16;0.63;;;0.40;;
55082;SDS011;40978;52.850;6.506;2024-01-30T13:46:43;1.10;;;0.32;;
55082;SDS011;40978;52.850;6.506;2024-01-30T13:49:08;0.32;;;0.20;;
55082;SDS011;40978;52.850;6.506;2024-01-30T13:51:34;0.43;;;0.35;;
55082;SDS011;40978;52.850;6.506;2024-01-30T13:54:00;9.57;;;0.88;;
55082;SDS011;40978;52.850;6.506;2024-01-30T13:56:26;1.55;;;0.47;;
55082;SDS011;40978;52.850;6.506;2024-01-30T13:58:52;3.83;;;0.63;;
55082;SDS011;40978;52.850;6.506;2024-01-30T14:01:18;0.15;;;0.15;;
55082;SDS011;40978;52.850;6.506;2024-01-30T14:03:44;0.95;;;0.30;;
55082;SDS011;40978;52.850;6.506;2024-01-30T14:06:10;0.30;;;0.22;;
55082;SDS011;40978;52.850;6.506;2024-01-30T14:08:36;0.65;;;0.25;;
55082;SDS011;40978;52.850;6.506;2024-01-30T14:11:02;5.32;;;0.22;;
55082;SDS011;40978;52.850;6.506;2024-01-30T14:13:28;2.92;;;0.70;;
55082;SDS011;40978;52.850;6.506;2024-01-30T14:15:56;1.15;;;0.30;;
55082;SDS011;40978;52.850;6.506;2024-01-30T14:18:22;0.60;;;0.40;;
55082;SDS011;40978;52.850;6.506;2024-01-30T14:20:47;0.40;;;0.20;;
55082;SDS011;40978;52.850;6.506;2024-01-30T14:23:13;0.50;;;0.20;;
55082;SDS011;40978;52.850;6.506;2024-01-30T14:25:43;0.93;;;0.20;;
55082;SDS011;40978;52.850;6.506;2024-01-30T14:28:09;1.02;;;0.25;;
55082;SDS011;40978;52.850;6.506;2024-01-30T14:30:35;1.63;;;0.20;;
55082;SDS011;40978;52.850;6.506;2024-01-30T14:33:01;0.75;;;0.20;;
55082;SDS011;40978;52.850;6.506;2024-01-30T14:35:27;0.28;;;0.10;;
55082;SDS011;40978;52.850;6.506;2024-01-30T14:37:52;0.38;;;0.13;;
55082;SDS011;40978;52.850;6.506;2024-01-30T14:40:18;1.35;;;0.22;;
55082;SDS011;40978;52.850;6.506;2024-01-30T14:42:45;0.17;;;0.10;;
55082;SDS011;40978;52.850;6.506;2024-01-30T14:45:11;0.52;;;0.28;;